RUK1917 EGCC-EIDW
Flight info
| Callsign | RUK1917 |
|---|---|
| Flight time | 0h 34m |
| Altitude | 26000 |
| Route | ASMIM L975 WAL L10 PENIL/N0362F240 L28 LELDO M145 BAGSO |
| Aircraft | B738/M-SDE1E2E3FGIJ1LRWY/SB1 |
Departure
| Time | 2026-05-08 05:35 |
|---|---|
| Airport | Manchester Airport (EGCC) |
Arrival
| Time | 2026-05-08 06:09 |
|---|---|
| Airport | Dublin Airport (EIDW) |
| Time | Latitude | Longitude | Altitude | Speed | Heading |
|---|---|---|---|---|---|
| 2026-05-08 05:06 | 53.36035 | -2.26880 | 232 ft | 0 kts | 313° |
| 2026-05-08 05:26 | 53.36019 | -2.26851 | 236 ft | 4 kts | 313° |
| 2026-05-08 05:27 | 53.36005 | -2.26824 | 235 ft | 4 kts | 285° |
| 2026-05-08 05:27 | 53.36009 | -2.26786 | 235 ft | 4 kts | 236° |
| 2026-05-08 05:27 | 53.36024 | -2.26753 | 235 ft | 4 kts | 231° |
| 2026-05-08 05:27 | 53.36041 | -2.26718 | 237 ft | 4 kts | 231° |
| 2026-05-08 05:28 | 53.36050 | -2.26700 | 233 ft | 0 kts | 231° |
| 2026-05-08 05:30 | 53.36049 | -2.26701 | 233 ft | 0 kts | 231° |
| 2026-05-08 05:30 | 53.36042 | -2.26716 | 237 ft | 3 kts | 231° |
| 2026-05-08 05:30 | 53.36013 | -2.26745 | 230 ft | 6 kts | 193° |
| 2026-05-08 05:31 | 53.35963 | -2.26723 | 233 ft | 9 kts | 168° |
| 2026-05-08 05:31 | 53.35897 | -2.26702 | 234 ft | 10 kts | 169° |
| 2026-05-08 05:31 | 53.35830 | -2.26682 | 242 ft | 10 kts | 169° |
| 2026-05-08 05:31 | 53.35760 | -2.26662 | 245 ft | 12 kts | 171° |
| 2026-05-08 05:32 | 53.35643 | -2.26630 | 233 ft | 21 kts | 170° |
| 2026-05-08 05:32 | 53.35523 | -2.26724 | 232 ft | 20 kts | 229° |
| 2026-05-08 05:32 | 53.35436 | -2.26903 | 232 ft | 20 kts | 231° |
| 2026-05-08 05:32 | 53.35352 | -2.27077 | 232 ft | 19 kts | 231° |
| 2026-05-08 05:33 | 53.35257 | -2.27214 | 232 ft | 18 kts | 194° |
| 2026-05-08 05:33 | 53.35188 | -2.27240 | 232 ft | 2 kts | 191° |
| 2026-05-08 05:33 | 53.35177 | -2.27244 | 232 ft | 2 kts | 191° |
| 2026-05-08 05:33 | 53.35153 | -2.27252 | 233 ft | 6 kts | 191° |
| 2026-05-08 05:34 | 53.35088 | -2.27273 | 234 ft | 13 kts | 191° |
| 2026-05-08 05:34 | 53.34994 | -2.27352 | 232 ft | 18 kts | 230° |
| 2026-05-08 05:34 | 53.34885 | -2.27574 | 231 ft | 41 kts | 231° |
| 2026-05-08 05:34 | 53.34539 | -2.28294 | 231 ft | 115 kts | 231° |
| 2026-05-08 05:35 | 53.33907 | -2.29576 | 302 ft | 168 kts | 229° |
| 2026-05-08 05:35 | 53.33181 | -2.31061 | 1247 ft | 159 kts | 230° |
| 2026-05-08 05:35 | 53.32465 | -2.32504 | 2093 ft | 167 kts | 228° |
| 2026-05-08 05:35 | 53.31924 | -2.34430 | 2470 ft | 204 kts | 259° |
| 2026-05-08 05:36 | 53.31992 | -2.36956 | 2822 ft | 230 kts | 279° |
| 2026-05-08 05:36 | 53.32338 | -2.39605 | 3477 ft | 235 kts | 279° |
| 2026-05-08 05:36 | 53.32614 | -2.42310 | 4157 ft | 237 kts | 268° |
| 2026-05-08 05:36 | 53.32363 | -2.45008 | 4898 ft | 235 kts | 253° |
| 2026-05-08 05:37 | 53.31881 | -2.47630 | 5559 ft | 238 kts | 250° |
| 2026-05-08 05:37 | 53.31361 | -2.50285 | 6196 ft | 245 kts | 250° |
| 2026-05-08 05:37 | 53.30821 | -2.53113 | 6614 ft | 262 kts | 251° |
| 2026-05-08 05:37 | 53.30270 | -2.56061 | 7413 ft | 267 kts | 251° |
| 2026-05-08 05:38 | 53.29720 | -2.59029 | 8403 ft | 267 kts | 251° |
| 2026-05-08 05:38 | 53.29169 | -2.62012 | 9336 ft | 270 kts | 251° |
| 2026-05-08 05:38 | 53.28611 | -2.65030 | 10227 ft | 274 kts | 252° |
| 2026-05-08 05:38 | 53.28031 | -2.68166 | 10633 ft | 295 kts | 252° |
| 2026-05-08 05:39 | 53.27400 | -2.71578 | 10915 ft | 318 kts | 252° |
| 2026-05-08 05:39 | 53.26736 | -2.75161 | 11572 ft | 327 kts | 252° |
| 2026-05-08 05:39 | 53.26117 | -2.78830 | 12370 ft | 332 kts | 260° |
| 2026-05-08 05:39 | 53.26180 | -2.82702 | 13178 ft | 338 kts | 281° |
| 2026-05-08 05:40 | 53.27064 | -2.86354 | 14109 ft | 341 kts | 301° |
| 2026-05-08 05:40 | 53.28435 | -2.89558 | 15064 ft | 338 kts | 305° |
| 2026-05-08 05:40 | 53.29862 | -2.92674 | 15952 ft | 337 kts | 305° |
| 2026-05-08 05:40 | 53.31298 | -2.95788 | 16803 ft | 338 kts | 305° |
| 2026-05-08 05:41 | 53.32721 | -2.98904 | 17620 ft | 339 kts | 304° |
| 2026-05-08 05:41 | 53.34140 | -3.02044 | 17985 ft | 337 kts | 304° |
| 2026-05-08 05:41 | 53.35550 | -3.05192 | 18033 ft | 339 kts | 304° |
| 2026-05-08 05:41 | 53.36955 | -3.08342 | 18048 ft | 337 kts | 303° |
| 2026-05-08 05:42 | 53.38352 | -3.11484 | 18049 ft | 336 kts | 303° |
| 2026-05-08 05:42 | 53.39741 | -3.14627 | 18051 ft | 335 kts | 303° |
| 2026-05-08 05:42 | 53.41105 | -3.17801 | 18057 ft | 335 kts | 302° |
| 2026-05-08 05:42 | 53.42456 | -3.20982 | 18046 ft | 335 kts | 302° |
| 2026-05-08 05:43 | 53.43802 | -3.24161 | 18041 ft | 335 kts | 302° |
| 2026-05-08 05:43 | 53.45151 | -3.27349 | 18055 ft | 335 kts | 302° |
| 2026-05-08 05:43 | 53.46481 | -3.30491 | 18040 ft | 335 kts | 302° |
| 2026-05-08 05:43 | 53.47829 | -3.33677 | 18044 ft | 335 kts | 302° |
| 2026-05-08 05:44 | 53.49180 | -3.36869 | 18043 ft | 335 kts | 302° |
| 2026-05-08 05:44 | 53.50529 | -3.40061 | 18042 ft | 335 kts | 302° |
| 2026-05-08 05:44 | 53.51878 | -3.43255 | 18040 ft | 336 kts | 302° |
| 2026-05-08 05:44 | 53.53228 | -3.46456 | 18042 ft | 336 kts | 302° |
| 2026-05-08 05:45 | 53.54577 | -3.49659 | 18037 ft | 336 kts | 302° |
| 2026-05-08 05:45 | 53.55925 | -3.52863 | 18036 ft | 336 kts | 302° |
| 2026-05-08 05:45 | 53.57275 | -3.56074 | 18032 ft | 336 kts | 302° |
| 2026-05-08 05:45 | 53.58623 | -3.59285 | 18043 ft | 336 kts | 302° |
| 2026-05-08 05:46 | 53.59968 | -3.62495 | 18042 ft | 336 kts | 302° |
| 2026-05-08 05:46 | 53.61297 | -3.65722 | 18037 ft | 334 kts | 298° |
| 2026-05-08 05:46 | 53.62343 | -3.69187 | 18042 ft | 330 kts | 289° |
| 2026-05-08 05:46 | 53.63198 | -3.72777 | 18038 ft | 330 kts | 288° |
| 2026-05-08 05:47 | 53.64032 | -3.76380 | 18042 ft | 330 kts | 288° |
| 2026-05-08 05:47 | 53.64870 | -3.79985 | 18038 ft | 330 kts | 288° |
| 2026-05-08 05:47 | 53.65715 | -3.83579 | 18044 ft | 330 kts | 288° |
| 2026-05-08 05:47 | 53.66568 | -3.87178 | 18038 ft | 330 kts | 288° |
| 2026-05-08 05:48 | 53.67420 | -3.90767 | 18040 ft | 330 kts | 288° |
| 2026-05-08 05:48 | 53.68274 | -3.94364 | 18039 ft | 330 kts | 288° |
| 2026-05-08 05:48 | 53.69136 | -3.97951 | 18037 ft | 330 kts | 289° |
| 2026-05-08 05:48 | 53.70009 | -4.01534 | 18039 ft | 330 kts | 289° |
| 2026-05-08 05:49 | 53.70880 | -4.05115 | 18041 ft | 330 kts | 289° |
| 2026-05-08 05:49 | 53.71603 | -4.08761 | 18039 ft | 327 kts | 279° |
| 2026-05-08 05:49 | 53.71913 | -4.12531 | 18047 ft | 323 kts | 271° |
| 2026-05-08 05:49 | 53.72049 | -4.16312 | 18042 ft | 323 kts | 270° |
| 2026-05-08 05:50 | 53.72167 | -4.20101 | 18044 ft | 323 kts | 270° |
| 2026-05-08 05:50 | 53.72287 | -4.23890 | 18043 ft | 323 kts | 270° |
| 2026-05-08 05:50 | 53.72413 | -4.27675 | 18039 ft | 323 kts | 270° |
| 2026-05-08 05:50 | 53.72544 | -4.31469 | 18037 ft | 323 kts | 270° |
| 2026-05-08 05:51 | 53.72679 | -4.35258 | 18038 ft | 323 kts | 270° |
| 2026-05-08 05:51 | 53.72813 | -4.39048 | 18036 ft | 323 kts | 270° |
| 2026-05-08 05:51 | 53.72946 | -4.42839 | 18035 ft | 323 kts | 270° |
| 2026-05-08 05:51 | 53.73078 | -4.46629 | 18038 ft | 323 kts | 270° |
| 2026-05-08 05:52 | 53.73208 | -4.50367 | 18023 ft | 313 kts | 270° |
| 2026-05-08 05:52 | 53.73334 | -4.53976 | 18019 ft | 303 kts | 270° |
| 2026-05-08 05:52 | 53.73455 | -4.57505 | 18029 ft | 300 kts | 270° |
| 2026-05-08 05:52 | 53.73573 | -4.61033 | 18043 ft | 302 kts | 270° |
| 2026-05-08 05:53 | 53.73691 | -4.64581 | 18043 ft | 303 kts | 270° |
| 2026-05-08 05:53 | 53.73808 | -4.68077 | 17899 ft | 301 kts | 270° |
| 2026-05-08 05:53 | 53.73926 | -4.71676 | 17392 ft | 306 kts | 270° |
| 2026-05-08 05:53 | 53.74045 | -4.75274 | 16966 ft | 307 kts | 270° |
| 2026-05-08 05:54 | 53.74161 | -4.78849 | 16632 ft | 304 kts | 270° |
| 2026-05-08 05:54 | 53.74275 | -4.82408 | 16301 ft | 302 kts | 270° |
| 2026-05-08 05:54 | 53.74390 | -4.85939 | 15971 ft | 300 kts | 270° |
| 2026-05-08 05:54 | 53.74504 | -4.89451 | 15639 ft | 298 kts | 269° |
| 2026-05-08 05:55 | 53.74215 | -4.92855 | 15380 ft | 289 kts | 252° |
| 2026-05-08 05:55 | 53.73616 | -4.95982 | 15277 ft | 272 kts | 250° |
| 2026-05-08 05:55 | 53.73008 | -4.98917 | 15142 ft | 258 kts | 249° |
| 2026-05-08 05:55 | 53.72415 | -5.01741 | 14787 ft | 254 kts | 249° |
| 2026-05-08 05:56 | 53.71817 | -5.04549 | 14351 ft | 254 kts | 249° |
| 2026-05-08 05:56 | 53.71215 | -5.07349 | 13937 ft | 253 kts | 249° |
| 2026-05-08 05:56 | 53.70609 | -5.10136 | 13482 ft | 252 kts | 249° |
| 2026-05-08 05:56 | 53.70006 | -5.12901 | 13060 ft | 250 kts | 249° |
| 2026-05-08 05:57 | 53.69408 | -5.15644 | 12651 ft | 248 kts | 249° |
| 2026-05-08 05:57 | 53.68818 | -5.18365 | 12232 ft | 246 kts | 249° |
| 2026-05-08 05:57 | 53.68232 | -5.21074 | 11814 ft | 245 kts | 249° |
| 2026-05-08 05:57 | 53.67653 | -5.23766 | 11422 ft | 243 kts | 249° |
| 2026-05-08 05:58 | 53.67082 | -5.26433 | 11083 ft | 240 kts | 249° |
| 2026-05-08 05:58 | 53.66518 | -5.29076 | 10808 ft | 238 kts | 249° |
| 2026-05-08 05:58 | 53.65958 | -5.31706 | 10537 ft | 238 kts | 249° |
| 2026-05-08 05:58 | 53.65401 | -5.34338 | 10273 ft | 239 kts | 249° |
| 2026-05-08 05:59 | 53.64826 | -5.36947 | 10128 ft | 234 kts | 241° |
| 2026-05-08 05:59 | 53.63839 | -5.39128 | 9942 ft | 238 kts | 226° |
| 2026-05-08 05:59 | 53.62654 | -5.41134 | 9686 ft | 244 kts | 224° |
| 2026-05-08 05:59 | 53.61440 | -5.43136 | 9417 ft | 244 kts | 224° |
| 2026-05-08 06:00 | 53.60229 | -5.45120 | 9143 ft | 242 kts | 224° |
| 2026-05-08 06:00 | 53.59025 | -5.47088 | 8878 ft | 240 kts | 224° |
| 2026-05-08 06:00 | 53.57829 | -5.49041 | 8607 ft | 239 kts | 224° |
| 2026-05-08 06:00 | 53.56639 | -5.50981 | 8339 ft | 238 kts | 224° |
| 2026-05-08 06:01 | 53.55457 | -5.52909 | 8076 ft | 236 kts | 224° |
| 2026-05-08 06:01 | 53.54280 | -5.54829 | 7821 ft | 235 kts | 224° |
| 2026-05-08 06:01 | 53.53109 | -5.56737 | 7570 ft | 234 kts | 224° |
| 2026-05-08 06:01 | 53.51944 | -5.58636 | 7314 ft | 233 kts | 224° |
| 2026-05-08 06:02 | 53.50782 | -5.60529 | 7056 ft | 232 kts | 224° |
| 2026-05-08 06:02 | 53.49624 | -5.62412 | 6806 ft | 231 kts | 224° |
| 2026-05-08 06:02 | 53.48647 | -5.64526 | 6542 ft | 231 kts | 242° |
| 2026-05-08 06:02 | 53.47966 | -5.66947 | 6310 ft | 229 kts | 244° |
| 2026-05-08 06:03 | 53.47292 | -5.69360 | 6043 ft | 228 kts | 244° |
| 2026-05-08 06:03 | 53.46619 | -5.71766 | 5764 ft | 228 kts | 244° |
| 2026-05-08 06:03 | 53.45945 | -5.74173 | 5491 ft | 227 kts | 244° |
| 2026-05-08 06:03 | 53.45500 | -5.75757 | 5329 ft | 227 kts | 244° |
| 2026-05-08 06:04 | 53.44826 | -5.78153 | 5049 ft | 227 kts | 244° |
| 2026-05-08 06:04 | 53.44150 | -5.80544 | 4782 ft | 227 kts | 244° |
| 2026-05-08 06:04 | 53.43479 | -5.82908 | 4499 ft | 223 kts | 244° |
| 2026-05-08 06:04 | 53.42815 | -5.85237 | 4313 ft | 220 kts | 244° |
| 2026-05-08 06:05 | 53.42156 | -5.87553 | 4188 ft | 221 kts | 244° |
| 2026-05-08 06:05 | 53.41483 | -5.89916 | 3948 ft | 228 kts | 244° |
| 2026-05-08 06:05 | 53.40798 | -5.92323 | 3706 ft | 230 kts | 244° |
| 2026-05-08 06:05 | 53.40109 | -5.94738 | 3459 ft | 229 kts | 244° |
| 2026-05-08 06:06 | 53.39459 | -5.97163 | 3221 ft | 228 kts | 253° |
| 2026-05-08 06:06 | 53.39448 | -5.99775 | 3057 ft | 228 kts | 283° |
| 2026-05-08 06:06 | 53.39935 | -6.02341 | 2830 ft | 236 kts | 288° |
| 2026-05-08 06:06 | 53.40472 | -6.04910 | 2581 ft | 229 kts | 288° |
| 2026-05-08 06:07 | 53.40956 | -6.07380 | 2371 ft | 220 kts | 282° |
| 2026-05-08 06:07 | 53.41209 | -6.09872 | 2070 ft | 214 kts | 276° |
| 2026-05-08 06:07 | 53.41345 | -6.12314 | 1774 ft | 205 kts | 274° |
| 2026-05-08 06:07 | 53.41462 | -6.14611 | 1485 ft | 191 kts | 274° |
| 2026-05-08 06:08 | 53.41576 | -6.16738 | 1262 ft | 174 kts | 274° |
| 2026-05-08 06:08 | 53.41681 | -6.18678 | 987 ft | 161 kts | 274° |
| 2026-05-08 06:08 | 53.41777 | -6.20468 | 780 ft | 150 kts | 274° |
| 2026-05-08 06:08 | 53.41872 | -6.22222 | 579 ft | 151 kts | 275° |
| 2026-05-08 06:09 | 53.41967 | -6.23966 | 371 ft | 149 kts | 275° |
| 2026-05-08 06:09 | 53.42061 | -6.25661 | 218 ft | 140 kts | 275° |
| 2026-05-08 06:09 | 53.42135 | -6.27024 | 219 ft | 87 kts | 275° |
| 2026-05-08 06:09 | 53.42175 | -6.27693 | 209 ft | 42 kts | 280° |
| 2026-05-08 06:10 | 53.42253 | -6.28000 | 210 ft | 23 kts | 300° |
| 2026-05-08 06:10 | 53.42346 | -6.28108 | 215 ft | 18 kts | 38° |
| 2026-05-08 06:10 | 53.42354 | -6.27906 | 212 ft | 18 kts | 96° |
| 2026-05-08 06:10 | 53.42343 | -6.27705 | 210 ft | 17 kts | 95° |
| 2026-05-08 06:11 | 53.42333 | -6.27510 | 210 ft | 16 kts | 95° |
| 2026-05-08 06:11 | 53.42322 | -6.27323 | 210 ft | 16 kts | 96° |
| 2026-05-08 06:11 | 53.42312 | -6.27136 | 214 ft | 17 kts | 95° |
| 2026-05-08 06:11 | 53.42300 | -6.26925 | 210 ft | 19 kts | 95° |
| 2026-05-08 06:12 | 53.42287 | -6.26690 | 210 ft | 21 kts | 96° |
| 2026-05-08 06:12 | 53.42273 | -6.26437 | 216 ft | 23 kts | 95° |
| 2026-05-08 06:12 | 53.42277 | -6.26169 | 210 ft | 24 kts | 70° |
| 2026-05-08 06:12 | 53.42377 | -6.25963 | 218 ft | 23 kts | 45° |
| 2026-05-08 06:13 | 53.42492 | -6.25770 | 210 ft | 24 kts | 45° |
| 2026-05-08 06:13 | 53.42605 | -6.25579 | 215 ft | 23 kts | 45° |
| 2026-05-08 06:13 | 53.42713 | -6.25392 | 211 ft | 22 kts | 46° |
| 2026-05-08 06:13 | 53.42836 | -6.25275 | 210 ft | 21 kts | 347° |
| 2026-05-08 06:14 | 53.42972 | -6.25369 | 218 ft | 21 kts | 336° |
| 2026-05-08 06:14 | 53.43103 | -6.25463 | 215 ft | 20 kts | 336° |
| 2026-05-08 06:14 | 53.43219 | -6.25427 | 210 ft | 17 kts | 62° |
| 2026-05-08 06:14 | 53.43257 | -6.25278 | 210 ft | 8 kts | 54° |
| 2026-05-08 06:15 | 53.43299 | -6.25256 | 210 ft | 6 kts | 5° |
| 2026-05-08 06:15 | 53.43303 | -6.25255 | 212 ft | 1 kts | 5° |